Aérodrome :
LOGIN :

S'inscrire | Disclaimer

   EN    FR    IT 

 










Légende :    VFR   VFR Marginal   IFR   IFR Intensif   IFR Très Intensif
Visi : 
Plafond : 
>= 8 km
>= 3000ft
5 à 8 km
1000 à 3000 ft
1500m à 5 km
500 à 1000 ft
800 à 1500m
200 à 500 ft
< 800m
< 200 ft
Symboles :   Orages  Brouillard  Fortes neiges  Fortes précipitations  Vent > 20 kt
SIGMETs :   Divers  Orages  Givrage  Turbulence  Onde Orograph.  Cendres Volcan.







- Altitude de l'aérodrome : 978 ft
- Code IATA : LNZ


LOWL - Linz

DERNIER METAR :
  • 221750Z AUTO 08016KT 9999 NSC 19/03 Q1007 NOSIG

METARs EXPIRÉS :
  • 221720Z AUTO 08018G28KT 9999 NSC 20/03 Q1007 NOSIG
  • 221650Z AUTO 09016KT 9999 NSC 20/02 Q1007 NOSIG
  • 221620Z AUTO 10016KT 9999 NSC 21/02 Q1007 NOSIG
  • 221550Z AUTO 11016KT 9999 NSC 21/02 Q1007 NOSIG
  • 221520Z AUTO 11015KT 080V140 9999 NSC 22/02 Q1007 NOSIG

TAF COR TAF LOWL
Valide du 22 à 18h jusqu'au 23 à 18h UTC


221757Z 2218/2318 09012KT CAVOK TX19/2218Z TN11/2303Z
TEMPO 2218/2309 09018G28KT
PROB30
TEMPO 2218/2224 10020G35KT
BECMG 2306/2308 9999 BKN070
TEMPO 2309/2318 12020G35KT
Pas de NOTAMs connus pour ce terrain.



MET'MAP, la Météo Aéronautique d'un coup d'oeil ! - Copyright ORBIFLY Décembre 2007 - Disclaimer

ORBIFLY MET'MAP TEAM :

Programmation & Développement : Alexandra Zaïnal
Conception & Développement : Baudouin d'Aumeries
Co-Programmation & Développement : Marc-Olivier Méhu
Soutien technique & logistique : Manuel Goepfert

Contact : metmap@orbifly.com




SOURCES & CREDITS :

   NOAA